Etusivu
METAR-TAF:

METAR-TAF

Lentoasemat :

Kemi, Suomi

Kemi-Tornion lentoasema

Leveyspiiri: 65-47N, Pituuspiiri: 024-35E, korkeus merenpinnasta: 15 m

Tämänhetkinen sää

Tämä raportti tehtiin 35 minuuttia sitten, kello 23.20 UTC
Tuuli 7 kn idästä
Lämpötila -12°C
Kosteus 85%
Ilmanpaine 1007 hPa
Näkyvyys 10 km tai enemmän
ei pilviä alle 1500 m:ssä eikä cumulonimbus-pilviä

METAR: EFKE 172320Z 08007KT CAVOK M12/M14 Q1007

Aika: 01:55 (23:55 UTC)

Sääennuste

Tämä raportti tehtiin 3 tuntia ja 23 minuuttia sitten, kello 20.32 UTC
Ennuste voimassa 17. päivästä klo 21 UTC - 17. päivään klo 24 UTC
Tuuli 7 kn idästä
Näkyvyys 10 km tai enemmän
Hajonneita pilviä 2000 ft:n korkeudessa
heikkoa lumisadetta
Ajoittain
17. päivästä klo 21 UTC - 17. päivään klo 24 UTC
Näkyvyys: 2000 m
Hajonneita pilviä 800 ft:n korkeudessa
lumisadetta

TAF: EFKE 172032Z 1721/1724 09007KT 9999 -SN BKN020 TEMPO 1721/1724 2000 SN BKN008

Säähavainnot ja -ennusteet yli 4000 lentoasemalta (METAR- ja TAF-raportit).

Käytössä olevat sääasemat on merkitty karttaan keltaisilla ja punaisilla pisteillä.

Aseta hiiri pisteen päälle nähdäksesi sääaseman nimen.

Klikkaa sitten nähdäksesi säähavainnot ja -ennusteet.

Kartan vaihtaminen: klikkaa mustalla rastilla varustettuja vihreitä pisteitä, niin voit zoomata sisään; viivalla varustettua vihreää pistettä, niin voit zoomata ulos tai vihreitä nuolia, niin pääset viereisille kartoille.


METAR-TAF: